sensor_id;sensor_type;location;lat;lon;timestamp;pressure;altitude;pressure_sealevel;temperature;humidity
83716;BME280;73698;51.138;6.950;2024-03-17T00:01:42;101915.66;;;3.48;88.06
83716;BME280;73698;51.138;6.950;2024-03-17T00:04:07;101905.06;;;3.46;88.14
83716;BME280;73698;51.138;6.950;2024-03-17T00:06:33;101901.50;;;3.46;88.13
83716;BME280;73698;51.138;6.950;2024-03-17T00:08:58;101898.91;;;3.44;88.00
83716;BME280;73698;51.138;6.950;2024-03-17T00:11:24;101897.97;;;3.45;88.38
83716;BME280;73698;51.138;6.950;2024-03-17T00:13:50;101900.63;;;3.45;87.91
83716;BME280;73698;51.138;6.950;2024-03-17T00:16:15;101894.44;;;3.45;88.17
83716;BME280;73698;51.138;6.950;2024-03-17T00:18:44;101896.25;;;3.44;88.41
83716;BME280;73698;51.138;6.950;2024-03-17T00:21:11;101889.13;;;3.46;88.36
83716;BME280;73698;51.138;6.950;2024-03-17T00:23:37;101886.38;;;3.51;88.48
83716;BME280;73698;51.138;6.950;2024-03-17T00:26:02;101879.25;;;3.51;88.22
83716;BME280;73698;51.138;6.950;2024-03-17T00:28:28;101880.09;;;3.53;88.25
83716;BME280;73698;51.138;6.950;2024-03-17T00:30:53;101881.88;;;3.54;88.43
83716;BME280;73698;51.138;6.950;2024-03-17T00:33:18;101886.31;;;3.54;87.76
83716;BME280;73698;51.138;6.950;2024-03-17T00:35:44;101872.09;;;3.55;87.89
83716;BME280;73698;51.138;6.950;2024-03-17T00:38:10;101867.66;;;3.55;87.97
83716;BME280;73698;51.138;6.950;2024-03-17T00:40:37;101866.72;;;3.58;87.77
83716;BME280;73698;51.138;6.950;2024-03-17T00:43:02;101864.91;;;3.60;87.74
83716;BME280;73698;51.138;6.950;2024-03-17T00:45:28;101874.56;;;3.65;88.05
83716;BME280;73698;51.138;6.950;2024-03-17T00:47:53;101862.91;;;3.71;87.58
83716;BME280;73698;51.138;6.950;2024-03-17T00:50:18;101860.19;;;3.74;87.42
83716;BME280;73698;51.138;6.950;2024-03-17T00:52:44;101859.16;;;3.80;87.11
83716;BME280;73698;51.138;6.950;2024-03-17T00:55:09;101852.00;;;3.83;86.68
83716;BME280;73698;51.138;6.950;2024-03-17T00:57:35;101854.56;;;3.88;86.54
83716;BME280;73698;51.138;6.950;2024-03-17T01:00:02;101852.81;;;3.88;86.39
83716;BME280;73698;51.138;6.950;2024-03-17T01:02:28;101849.16;;;3.91;86.19
83716;BME280;73698;51.138;6.950;2024-03-17T01:04:53;101852.75;;;3.90;86.03
83716;BME280;73698;51.138;6.950;2024-03-17T01:07:19;101855.41;;;3.90;86.04
83716;BME280;73698;51.138;6.950;2024-03-17T01:09:47;101847.50;;;3.87;86.40
83716;BME280;73698;51.138;6.950;2024-03-17T01:12:13;101838.69;;;3.85;85.81
83716;BME280;73698;51.138;6.950;2024-03-17T01:14:38;101843.16;;;3.83;86.39
83716;BME280;73698;51.138;6.950;2024-03-17T01:17:04;101852.97;;;3.79;86.39
83716;BME280;73698;51.138;6.950;2024-03-17T01:19:33;101847.72;;;3.76;86.07
83716;BME280;73698;51.138;6.950;2024-03-17T01:22:00;101845.16;;;3.73;85.96
83716;BME280;73698;51.138;6.950;2024-03-17T01:24:26;101843.47;;;3.69;86.38
83716;BME280;73698;51.138;6.950;2024-03-17T01:26:59;101845.31;;;3.64;86.38
83716;BME280;73698;51.138;6.950;2024-03-17T01:29:24;101838.31;;;3.60;86.80
83716;BME280;73698;51.138;6.950;2024-03-17T01:31:50;101835.75;;;3.55;86.82
83716;BME280;73698;51.138;6.950;2024-03-17T01:34:16;101841.13;;;3.52;86.74
83716;BME280;73698;51.138;6.950;2024-03-17T01:36:41;101837.66;;;3.49;87.24
83716;BME280;73698;51.138;6.950;2024-03-17T01:39:07;101835.94;;;3.46;87.03
83716;BME280;73698;51.138;6.950;2024-03-17T01:41:33;101828.91;;;3.43;86.92
83716;BME280;73698;51.138;6.950;2024-03-17T01:43:58;101822.72;;;3.41;87.30
83716;BME280;73698;51.138;6.950;2024-03-17T01:46:24;101826.34;;;3.39;87.66
83716;BME280;73698;51.138;6.950;2024-03-17T01:48:50;101826.34;;;3.37;87.60
83716;BME280;73698;51.138;6.950;2024-03-17T01:51:15;101825.56;;;3.32;87.81
83716;BME280;73698;51.138;6.950;2024-03-17T01:53:42;101826.53;;;3.28;87.38
83716;BME280;73698;51.138;6.950;2024-03-17T01:56:10;101821.31;;;3.24;88.10
83716;BME280;73698;51.138;6.950;2024-03-17T01:58:37;101819.69;;;3.16;88.17
83716;BME280;73698;51.138;6.950;2024-03-17T02:01:02;101827.75;;;3.12;87.92
83716;BME280;73698;51.138;6.950;2024-03-17T02:03:29;101829.63;;;3.05;87.88
83716;BME280;73698;51.138;6.950;2024-03-17T02:05:55;101809.34;;;3.00;87.90
83716;BME280;73698;51.138;6.950;2024-03-17T02:08:20;101810.38;;;2.94;88.38
83716;BME280;73698;51.138;6.950;2024-03-17T02:10:52;101805.09;;;2.91;88.81
83716;BME280;73698;51.138;6.950;2024-03-17T02:13:18;101813.13;;;2.88;88.90
83716;BME280;73698;51.138;6.950;2024-03-17T02:15:43;101803.47;;;2.84;88.77
83716;BME280;73698;51.138;6.950;2024-03-17T02:18:09;101814.16;;;2.81;88.93
83716;BME280;73698;51.138;6.950;2024-03-17T02:20:34;101816.00;;;2.77;89.35
83716;BME280;73698;51.138;6.950;2024-03-17T02:23:18;101817.84;;;2.72;89.14
83716;BME280;73698;51.138;6.950;2024-03-17T02:25:43;101816.16;;;2.66;88.85
83716;BME280;73698;51.138;6.950;2024-03-17T02:28:11;101815.34;;;2.63;88.91
83716;BME280;73698;51.138;6.950;2024-03-17T02:30:36;101813.66;;;2.59;88.94
83716;BME280;73698;51.138;6.950;2024-03-17T02:33:02;101812.78;;;2.57;89.83
83716;BME280;73698;51.138;6.950;2024-03-17T02:35:28;101802.25;;;2.52;89.19
83716;BME280;73698;51.138;6.950;2024-03-17T02:37:53;101804.13;;;2.47;89.54
83716;BME280;73698;51.138;6.950;2024-03-17T02:40:19;101806.81;;;2.44;89.64
83716;BME280;73698;51.138;6.950;2024-03-17T02:42:44;101800.72;;;2.39;89.68
83716;BME280;73698;51.138;6.950;2024-03-17T02:45:13;101806.06;;;2.36;89.48
83716;BME280;73698;51.138;6.950;2024-03-17T02:47:39;101809.63;;;2.35;90.02
83716;BME280;73698;51.138;6.950;2024-03-17T02:50:05;101795.44;;;2.34;90.59
83716;BME280;73698;51.138;6.950;2024-03-17T02:52:31;101796.34;;;2.35;90.72
83716;BME280;73698;51.138;6.950;2024-03-17T02:54:56;101801.66;;;2.35;90.69
83716;BME280;73698;51.138;6.950;2024-03-17T02:57:22;101796.34;;;2.35;91.24
83716;BME280;73698;51.138;6.950;2024-03-17T02:59:54;101797.22;;;2.35;91.19
83716;BME280;73698;51.138;6.950;2024-03-17T03:02:20;101800.75;;;2.34;91.44
83716;BME280;73698;51.138;6.950;2024-03-17T03:04:45;101802.53;;;2.35;91.36
83716;BME280;73698;51.138;6.950;2024-03-17T03:07:10;101800.75;;;2.34;91.42
83716;BME280;73698;51.138;6.950;2024-03-17T03:09:36;101801.72;;;2.32;90.97
83716;BME280;73698;51.138;6.950;2024-03-17T03:12:01;101799.97;;;2.29;91.53
83716;BME280;73698;51.138;6.950;2024-03-17T03:14:30;101804.44;;;2.26;91.21
83716;BME280;73698;51.138;6.950;2024-03-17T03:16:57;101805.34;;;2.25;91.35
83716;BME280;73698;51.138;6.950;2024-03-17T03:19:22;101798.34;;;2.20;91.35
83716;BME280;73698;51.138;6.950;2024-03-17T03:21:48;101795.72;;;2.17;91.28
83716;BME280;73698;51.138;6.950;2024-03-17T03:24:14;101788.69;;;2.15;91.42
83716;BME280;73698;51.138;6.950;2024-03-17T03:26:39;101786.94;;;2.14;91.55
83716;BME280;73698;51.138;6.950;2024-03-17T03:29:05;101789.63;;;2.11;91.21
83716;BME280;73698;51.138;6.950;2024-03-17T03:31:33;101789.63;;;2.11;92.04
83716;BME280;73698;51.138;6.950;2024-03-17T03:34:02;101787.84;;;2.11;91.89
83716;BME280;73698;51.138;6.950;2024-03-17T03:36:28;101786.09;;;2.12;92.13
83716;BME280;73698;51.138;6.950;2024-03-17T03:38:54;101794.03;;;2.13;92.12
83716;BME280;73698;51.138;6.950;2024-03-17T03:41:19;101786.03;;;2.15;92.22
83716;BME280;73698;51.138;6.950;2024-03-17T03:43:45;101796.66;;;2.16;92.42
83716;BME280;73698;51.138;6.950;2024-03-17T03:46:14;101790.47;;;2.14;92.24
83716;BME280;73698;51.138;6.950;2024-03-17T03:48:39;101790.47;;;2.14;92.74
83716;BME280;73698;51.138;6.950;2024-03-17T03:51:09;101795.81;;;2.13;92.71
83716;BME280;73698;51.138;6.950;2024-03-17T03:53:37;101802.91;;;2.12;92.55
83716;BME280;73698;51.138;6.950;2024-03-17T03:56:06;101800.25;;;2.12;92.79
83716;BME280;73698;51.138;6.950;2024-03-17T03:58:33;101798.47;;;2.11;92.38
83716;BME280;73698;51.138;6.950;2024-03-17T04:01:03;101795.81;;;2.11;92.61
83716;BME280;73698;51.138;6.950;2024-03-17T04:03:28;101786.94;;;2.15;93.18
83716;BME280;73698;51.138;6.950;2024-03-17T04:06:04;101786.84;;;2.20;93.16
83716;BME280;73698;51.138;6.950;2024-03-17T04:08:31;101795.66;;;2.24;93.61
83716;BME280;73698;51.138;6.950;2024-03-17T04:10:56;101790.25;;;2.28;92.93
83716;BME280;73698;51.138;6.950;2024-03-17T04:13:22;101786.69;;;2.29;93.08
83716;BME280;73698;51.138;6.950;2024-03-17T04:15:48;101781.41;;;2.29;92.76
83716;BME280;73698;51.138;6.950;2024-03-17T04:18:14;101781.41;;;2.29;93.18
83716;BME280;73698;51.138;6.950;2024-03-17T04:21:00;101778.75;;;2.31;93.20
83716;BME280;73698;51.138;6.950;2024-03-17T04:23:27;101777.81;;;2.32;93.00
83716;BME280;73698;51.138;6.950;2024-03-17T04:26:01;101776.00;;;2.34;93.40
83716;BME280;73698;51.138;6.950;2024-03-17T04:28:31;101760.81;;;2.43;93.30
83716;BME280;73698;51.138;6.950;2024-03-17T04:31:16;101768.75;;;2.45;93.17
83716;BME280;73698;51.138;6.950;2024-03-17T04:33:46;101759.03;;;2.44;93.16
83716;BME280;73698;51.138;6.950;2024-03-17T04:36:15;101766.13;;;2.43;92.95
83716;BME280;73698;51.138;6.950;2024-03-17T04:38:40;101756.34;;;2.45;92.75
83716;BME280;73698;51.138;6.950;2024-03-17T04:41:05;101760.78;;;2.47;92.58
83716;BME280;73698;51.138;6.950;2024-03-17T04:43:33;101758.88;;;2.53;92.84
83716;BME280;73698;51.138;6.950;2024-03-17T04:46:05;101755.25;;;2.57;92.73
83716;BME280;73698;51.138;6.950;2024-03-17T04:48:33;101757.84;;;2.62;92.34
83716;BME280;73698;51.138;6.950;2024-03-17T04:50:59;101760.41;;;2.66;92.57
83716;BME280;73698;51.138;6.950;2024-03-17T04:53:25;101750.56;;;2.73;92.21
83716;BME280;73698;51.138;6.950;2024-03-17T04:56:04;101749.53;;;2.80;92.15
83716;BME280;73698;51.138;6.950;2024-03-17T04:58:34;101741.41;;;2.89;91.87
83716;BME280;73698;51.138;6.950;2024-03-17T05:01:04;101736.84;;;2.94;91.45
83716;BME280;73698;51.138;6.950;2024-03-17T05:03:29;101738.53;;;3.00;91.65
83716;BME280;73698;51.138;6.950;2024-03-17T05:06:02;101739.25;;;3.07;90.73
83716;BME280;73698;51.138;6.950;2024-03-17T05:08:28;101739.16;;;3.13;90.81
83716;BME280;73698;51.138;6.950;2024-03-17T05:11:02;101730.97;;;3.24;89.89
83716;BME280;73698;51.138;6.950;2024-03-17T05:13:34;101739.59;;;3.33;88.83
83716;BME280;73698;51.138;6.950;2024-03-17T05:16:01;101738.53;;;3.42;88.36
83716;BME280;73698;51.138;6.950;2024-03-17T05:18:27;101726.84;;;3.51;87.57
83716;BME280;73698;51.138;6.950;2024-03-17T05:20:59;101737.25;;;3.61;86.65
83716;BME280;73698;51.138;6.950;2024-03-17T05:23:29;101737.97;;;3.68;86.07
83716;BME280;73698;51.138;6.950;2024-03-17T05:25:55;101736.16;;;3.68;85.91
83716;BME280;73698;51.138;6.950;2024-03-17T05:28:21;101738.88;;;3.67;86.58
83716;BME280;73698;51.138;6.950;2024-03-17T05:30:47;101738.13;;;3.62;86.47
83716;BME280;73698;51.138;6.950;2024-03-17T05:33:17;101746.22;;;3.56;86.93
83716;BME280;73698;51.138;6.950;2024-03-17T05:35:53;101746.31;;;3.51;86.74
83716;BME280;73698;51.138;6.950;2024-03-17T05:38:23;101751.63;;;3.51;87.26
83716;BME280;73698;51.138;6.950;2024-03-17T05:41:08;101752.56;;;3.50;86.09
83716;BME280;73698;51.138;6.950;2024-03-17T05:43:37;101750.78;;;3.51;85.98
83716;BME280;73698;51.138;6.950;2024-03-17T05:46:08;101754.31;;;3.50;86.25
83716;BME280;73698;51.138;6.950;2024-03-17T05:48:35;101751.66;;;3.50;86.43
83716;BME280;73698;51.138;6.950;2024-03-17T05:51:03;101753.44;;;3.49;86.61
83716;BME280;73698;51.138;6.950;2024-03-17T05:53:29;101748.13;;;3.49;85.93
83716;BME280;73698;51.138;6.950;2024-03-17T05:55:58;101741.88;;;3.52;86.98
83716;BME280;73698;51.138;6.950;2024-03-17T05:58:24;101743.69;;;3.50;86.38
83716;BME280;73698;51.138;6.950;2024-03-17T06:00:49;101749.03;;;3.48;86.65
83716;BME280;73698;51.138;6.950;2024-03-17T06:03:14;101742.84;;;3.48;86.47
83716;BME280;73698;51.138;6.950;2024-03-17T06:05:40;101739.28;;;3.49;86.65
83716;BME280;73698;51.138;6.950;2024-03-17T06:08:06;101741.94;;;3.49;86.50
83716;BME280;73698;51.138;6.950;2024-03-17T06:10:35;101738.22;;;3.56;86.31
83716;BME280;73698;51.138;6.950;2024-03-17T06:13:00;101739.81;;;3.64;85.99
83716;BME280;73698;51.138;6.950;2024-03-17T06:15:26;101740.59;;;3.70;85.86
83716;BME280;73698;51.138;6.950;2024-03-17T06:17:53;101743.16;;;3.73;86.01
83716;BME280;73698;51.138;6.950;2024-03-17T06:20:23;101745.69;;;3.79;86.01
83716;BME280;73698;51.138;6.950;2024-03-17T06:22:49;101739.25;;;3.89;85.49
83716;BME280;73698;51.138;6.950;2024-03-17T06:25:15;101735.50;;;3.98;84.95
83716;BME280;73698;51.138;6.950;2024-03-17T06:27:41;101729.94;;;4.08;84.51
83716;BME280;73698;51.138;6.950;2024-03-17T06:30:11;101720.78;;;4.19;85.15
83716;BME280;73698;51.138;6.950;2024-03-17T06:32:40;101722.25;;;4.32;84.64
83716;BME280;73698;51.138;6.950;2024-03-17T06:35:05;101729.91;;;4.44;84.26
83716;BME280;73698;51.138;6.950;2024-03-17T06:37:31;101718.94;;;4.56;83.58
83716;BME280;73698;51.138;6.950;2024-03-17T06:39:56;101711.53;;;4.68;83.39
83716;BME280;73698;51.138;6.950;2024-03-17T06:42:21;101702.31;;;4.79;83.69
83716;BME280;73698;51.138;6.950;2024-03-17T06:44:47;101700.16;;;4.94;82.12
83716;BME280;73698;51.138;6.950;2024-03-17T06:47:12;101700.66;;;5.06;81.32
83716;BME280;73698;51.138;6.950;2024-03-17T06:49:38;101705.59;;;5.20;81.77
83716;BME280;73698;51.138;6.950;2024-03-17T06:52:03;101705.25;;;5.32;81.81
83716;BME280;73698;51.138;6.950;2024-03-17T06:54:29;101697.69;;;5.47;80.08
83716;BME280;73698;51.138;6.950;2024-03-17T06:56:54;101694.56;;;5.62;79.92
83716;BME280;73698;51.138;6.950;2024-03-17T06:59:20;101696.00;;;5.72;78.39
83716;BME280;73698;51.138;6.950;2024-03-17T07:01:49;101684.97;;;5.83;78.22
83716;BME280;73698;51.138;6.950;2024-03-17T07:04:14;101672.25;;;5.91;77.70
83716;BME280;73698;51.138;6.950;2024-03-17T07:06:41;101669.44;;;5.97;77.86
83716;BME280;73698;51.138;6.950;2024-03-17T07:09:07;101678.16;;;6.02;77.80
83716;BME280;73698;51.138;6.950;2024-03-17T07:11:33;101679.75;;;6.08;77.50
83716;BME280;73698;51.138;6.950;2024-03-17T07:13:59;101692.13;;;6.10;77.79
83716;BME280;73698;51.138;6.950;2024-03-17T07:16:24;101693.75;;;6.15;77.31
83716;BME280;73698;51.138;6.950;2024-03-17T07:18:52;101693.56;;;6.21;77.31
83716;BME280;73698;51.138;6.950;2024-03-17T07:21:18;101697.88;;;6.25;76.06
83716;BME280;73698;51.138;6.950;2024-03-17T07:23:43;101691.59;;;6.26;77.92
83716;BME280;73698;51.138;6.950;2024-03-17T07:26:09;101697.88;;;6.25;77.12
83716;BME280;73698;51.138;6.950;2024-03-17T07:28:35;101705.81;;;6.26;77.09
83716;BME280;73698;51.138;6.950;2024-03-17T07:31:00;101709.41;;;6.25;78.25
83716;BME280;73698;51.138;6.950;2024-03-17T07:33:27;101704.84;;;6.29;77.82
83716;BME280;73698;51.138;6.950;2024-03-17T07:35:54;101705.53;;;6.35;77.60
83716;BME280;73698;51.138;6.950;2024-03-17T07:38:25;101703.72;;;6.36;78.06
83716;BME280;73698;51.138;6.950;2024-03-17T07:41:09;101699.00;;;6.44;77.49
83716;BME280;73698;51.138;6.950;2024-03-17T07:43:37;101700.19;;;6.60;77.14
83716;BME280;73698;51.138;6.950;2024-03-17T07:46:07;101695.03;;;6.81;75.53
83716;BME280;73698;51.138;6.950;2024-03-17T07:48:36;101690.69;;;7.02;74.81
83716;BME280;73698;51.138;6.950;2024-03-17T07:51:07;101685.59;;;7.19;75.20
83716;BME280;73698;51.138;6.950;2024-03-17T07:53:34;101702.69;;;7.39;74.55
83716;BME280;73698;51.138;6.950;2024-03-17T07:56:01;101701.91;;;7.58;73.40
83716;BME280;73698;51.138;6.950;2024-03-17T07:58:29;101702.91;;;7.78;73.48
83716;BME280;73698;51.138;6.950;2024-03-17T08:00:58;101711.81;;;8.00;74.59
83716;BME280;73698;51.138;6.950;2024-03-17T08:03:32;101700.28;;;8.20;74.30
83716;BME280;73698;51.138;6.950;2024-03-17T08:05:58;101712.19;;;8.33;71.61
83716;BME280;73698;51.138;6.950;2024-03-17T08:08:24;101710.84;;;8.45;71.92
83716;BME280;73698;51.138;6.950;2024-03-17T08:10:50;101715.28;;;8.46;71.00
83716;BME280;73698;51.138;6.950;2024-03-17T08:13:16;101716.03;;;8.50;69.15
83716;BME280;73698;51.138;6.950;2024-03-17T08:15:43;101721.59;;;8.66;70.16
83716;BME280;73698;51.138;6.950;2024-03-17T08:18:09;101720.09;;;8.79;70.35
83716;BME280;73698;51.138;6.950;2024-03-17T08:20:42;101724.88;;;8.93;70.65
83716;BME280;73698;51.138;6.950;2024-03-17T08:23:09;101713.94;;;8.97;70.01
83716;BME280;73698;51.138;6.950;2024-03-17T08:25:36;101708.09;;;8.88;69.30
83716;BME280;73698;51.138;6.950;2024-03-17T08:28:02;101702.28;;;8.78;70.05
83716;BME280;73698;51.138;6.950;2024-03-17T08:30:28;101698.38;;;8.65;69.16
83716;BME280;73698;51.138;6.950;2024-03-17T08:32:53;101697.59;;;8.63;70.37
83716;BME280;73698;51.138;6.950;2024-03-17T08:35:19;101702.63;;;8.70;71.81
83716;BME280;73698;51.138;6.950;2024-03-17T08:37:45;101711.50;;;8.91;71.00
83716;BME280;73698;51.138;6.950;2024-03-17T08:40:11;101712.28;;;9.14;69.20
83716;BME280;73698;51.138;6.950;2024-03-17T08:42:37;101698.75;;;9.36;69.37
83716;BME280;73698;51.138;6.950;2024-03-17T08:45:03;101694.03;;;9.41;66.62
83716;BME280;73698;51.138;6.950;2024-03-17T08:47:29;101689.13;;;9.50;66.74
83716;BME280;73698;51.138;6.950;2024-03-17T08:49:54;101696.44;;;9.66;65.43
83716;BME280;73698;51.138;6.950;2024-03-17T08:52:20;101689.03;;;9.71;65.23
83716;BME280;73698;51.138;6.950;2024-03-17T08:54:49;101687.94;;;9.75;64.73
83716;BME280;73698;51.138;6.950;2024-03-17T08:57:17;101694.28;;;9.91;66.41
83716;BME280;73698;51.138;6.950;2024-03-17T08:59:46;101683.34;;;9.96;63.82
83716;BME280;73698;51.138;6.950;2024-03-17T09:02:13;101681.50;;;9.96;64.03
83716;BME280;73698;51.138;6.950;2024-03-17T09:04:42;101667.41;;;9.91;63.12
83716;BME280;73698;51.138;6.950;2024-03-17T09:07:08;101675.09;;;9.99;65.48
83716;BME280;73698;51.138;6.950;2024-03-17T09:09:33;101671.50;;;10.17;64.92
83716;BME280;73698;51.138;6.950;2024-03-17T09:11:59;101665.31;;;10.34;63.72
83716;BME280;73698;51.138;6.950;2024-03-17T09:14:24;101662.75;;;10.48;63.67
83716;BME280;73698;51.138;6.950;2024-03-17T09:16:50;101655.41;;;10.52;62.93
83716;BME280;73698;51.138;6.950;2024-03-17T09:19:15;101656.25;;;10.52;61.51
83716;BME280;73698;51.138;6.950;2024-03-17T09:21:41;101660.41;;;10.42;62.52
83716;BME280;73698;51.138;6.950;2024-03-17T09:24:07;101658.19;;;10.50;64.00
83716;BME280;73698;51.138;6.950;2024-03-17T09:26:36;101666.88;;;10.56;63.68
83716;BME280;73698;51.138;6.950;2024-03-17T09:29:04;101666.78;;;10.74;65.74
83716;BME280;73698;51.138;6.950;2024-03-17T09:31:30;101666.03;;;10.88;63.26
83716;BME280;73698;51.138;6.950;2024-03-17T09:33:57;101667.28;;;10.98;61.23
83716;BME280;73698;51.138;6.950;2024-03-17T09:36:22;101666.50;;;10.96;60.53
83716;BME280;73698;51.138;6.950;2024-03-17T09:38:48;101664.97;;;11.08;64.04
83716;BME280;73698;51.138;6.950;2024-03-17T09:41:20;101659.31;;;11.13;63.93
83716;BME280;73698;51.138;6.950;2024-03-17T09:43:47;101656.31;;;11.19;62.16
83716;BME280;73698;51.138;6.950;2024-03-17T09:46:14;101653.69;;;11.17;60.25
83716;BME280;73698;51.138;6.950;2024-03-17T09:48:41;101658.75;;;11.23;61.32
83716;BME280;73698;51.138;6.950;2024-03-17T09:51:16;101654.56;;;11.34;60.10
83716;BME280;73698;51.138;6.950;2024-03-17T09:53:43;101670.22;;;11.59;62.40
83716;BME280;73698;51.138;6.950;2024-03-17T09:56:10;101665.69;;;11.75;62.65
83716;BME280;73698;51.138;6.950;2024-03-17T09:58:36;101664.13;;;11.71;61.74
83716;BME280;73698;51.138;6.950;2024-03-17T10:01:02;101676.59;;;11.58;60.15
83716;BME280;73698;51.138;6.950;2024-03-17T10:06:25;101681.00;;;11.59;60.50
83716;BME280;73698;51.138;6.950;2024-03-17T10:08:55;101672.06;;;11.58;60.40
83716;BME280;73698;51.138;6.950;2024-03-17T10:11:31;101670.38;;;11.71;61.97
83716;BME280;73698;51.138;6.950;2024-03-17T10:16:30;101676.66;;;11.72;61.77
83716;BME280;73698;51.138;6.950;2024-03-17T10:19:20;101680.41;;;11.69;59.39
83716;BME280;73698;51.138;6.950;2024-03-17T10:21:47;101683.00;;;11.71;60.00
83716;BME280;73698;51.138;6.950;2024-03-17T10:26:52;101676.25;;;11.95;61.65
83716;BME280;73698;51.138;6.950;2024-03-17T10:31:56;101679.63;;;11.83;60.51
83716;BME280;73698;51.138;6.950;2024-03-17T10:34:23;101670.16;;;11.92;60.67
83716;BME280;73698;51.138;6.950;2024-03-17T10:39:31;101670.16;;;11.92;61.17
83716;BME280;73698;51.138;6.950;2024-03-17T10:41:59;101660.25;;;11.92;59.00
83716;BME280;73698;51.138;6.950;2024-03-17T10:44:32;101668.16;;;11.95;60.52
83716;BME280;73698;51.138;6.950;2024-03-17T10:47:00;101664.13;;;12.03;60.92
83716;BME280;73698;51.138;6.950;2024-03-17T10:49:31;101662.47;;;12.16;60.84
83716;BME280;73698;51.138;6.950;2024-03-17T10:52:05;101662.53;;;12.30;61.29
83716;BME280;73698;51.138;6.950;2024-03-17T10:54:32;101662.53;;;12.30;59.97
83716;BME280;73698;51.138;6.950;2024-03-17T11:07:16;101652.81;;;12.42;57.63
83716;BME280;73698;51.138;6.950;2024-03-17T11:09:44;101655.06;;;12.50;59.85
83716;BME280;73698;51.138;6.950;2024-03-17T11:18:26;101652.78;;;13.01;58.10
83716;BME280;73698;51.138;6.950;2024-03-17T11:20:42;101656.75;;;13.09;60.31
83716;BME280;73698;51.138;6.950;2024-03-17T11:23:09;101653.94;;;13.39;59.08
83716;BME280;73698;51.138;6.950;2024-03-17T11:25:38;101656.34;;;13.44;55.55
83716;BME280;73698;51.138;6.950;2024-03-17T11:28:08;101653.09;;;13.39;54.45
83716;BME280;73698;51.138;6.950;2024-03-17T11:46:58;101635.19;;;13.92;53.68
83716;BME280;73698;51.138;6.950;2024-03-17T11:49:25;101637.22;;;13.88;53.83
83716;BME280;73698;51.138;6.950;2024-03-17T11:51:52;101642.31;;;13.93;53.62
83716;BME280;73698;51.138;6.950;2024-03-17T11:54:20;101627.38;;;13.87;54.93
83716;BME280;73698;51.138;6.950;2024-03-17T11:56:48;101631.81;;;13.88;55.30
83716;BME280;73698;51.138;6.950;2024-03-17T11:59:14;101624.41;;;14.05;55.13
83716;BME280;73698;51.138;6.950;2024-03-17T12:01:44;101615.22;;;14.07;54.53
83716;BME280;73698;51.138;6.950;2024-03-17T12:04:11;101612.06;;;14.01;52.85
83716;BME280;73698;51.138;6.950;2024-03-17T12:06:37;101604.34;;;13.95;54.81
83716;BME280;73698;51.138;6.950;2024-03-17T12:09:26;101603.63;;;14.05;55.70
83716;BME280;73698;51.138;6.950;2024-03-17T12:14:27;101594.34;;;14.09;55.42
83716;BME280;73698;51.138;6.950;2024-03-17T12:16:55;101596.94;;;14.11;55.31
83716;BME280;73698;51.138;6.950;2024-03-17T12:19:21;101597.16;;;14.08;54.85
83716;BME280;73698;51.138;6.950;2024-03-17T12:21:58;101592.75;;;14.20;55.66
83716;BME280;73698;51.138;6.950;2024-03-17T12:24:27;101588.72;;;14.12;54.38
83716;BME280;73698;51.138;6.950;2024-03-17T12:26:54;101583.50;;;14.09;53.82
83716;BME280;73698;51.138;6.950;2024-03-17T12:32:05;101577.91;;;14.12;53.51
83716;BME280;73698;51.138;6.950;2024-03-17T12:34:33;101569.47;;;14.17;52.88
83716;BME280;73698;51.138;6.950;2024-03-17T12:36:59;101571.97;;;14.20;54.04
83716;BME280;73698;51.138;6.950;2024-03-17T12:39:30;101573.16;;;14.16;52.74
83716;BME280;73698;51.138;6.950;2024-03-17T12:44:39;101560.69;;;14.13;54.75
83716;BME280;73698;51.138;6.950;2024-03-17T12:47:18;101565.56;;;14.08;52.88
83716;BME280;73698;51.138;6.950;2024-03-17T12:49:45;101559.94;;;14.11;53.58
83716;BME280;73698;51.138;6.950;2024-03-17T12:55:03;101547.38;;;14.10;52.86
83716;BME280;73698;51.138;6.950;2024-03-17T12:57:52;101545.31;;;14.14;51.80
83716;BME280;73698;51.138;6.950;2024-03-17T13:00:37;101537.13;;;14.15;54.09
83716;BME280;73698;51.138;6.950;2024-03-17T13:03:07;101525.53;;;14.13;53.42
83716;BME280;73698;51.138;6.950;2024-03-17T13:05:36;101526.84;;;14.21;53.03
83716;BME280;73698;51.138;6.950;2024-03-17T13:08:02;101521.00;;;14.27;53.49
83716;BME280;73698;51.138;6.950;2024-03-17T13:10:29;101514.28;;;14.32;54.50
83716;BME280;73698;51.138;6.950;2024-03-17T13:13:08;101512.56;;;14.31;54.37
83716;BME280;73698;51.138;6.950;2024-03-17T13:15:34;101506.28;;;14.31;51.92
83716;BME280;73698;51.138;6.950;2024-03-17T13:18:04;101500.00;;;14.17;53.46
83716;BME280;73698;51.138;6.950;2024-03-17T13:20:31;101489.16;;;14.17;52.64
83716;BME280;73698;51.138;6.950;2024-03-17T13:22:57;101497.53;;;14.14;52.20
83716;BME280;73698;51.138;6.950;2024-03-17T13:25:24;101493.06;;;14.01;52.12
83716;BME280;73698;51.138;6.950;2024-03-17T13:27:53;101492.22;;;14.00;52.37
83716;BME280;73698;51.138;6.950;2024-03-17T13:30:20;101484.41;;;14.08;56.66
83716;BME280;73698;51.138;6.950;2024-03-17T13:32:52;101477.50;;;14.17;53.52
83716;BME280;73698;51.138;6.950;2024-03-17T13:35:24;101480.31;;;14.15;52.68
83716;BME280;73698;51.138;6.950;2024-03-17T13:37:50;101472.63;;;14.09;53.66
83716;BME280;73698;51.138;6.950;2024-03-17T13:40:18;101474.13;;;14.01;52.69
83716;BME280;73698;51.138;6.950;2024-03-17T13:42:50;101475.00;;;14.01;54.79
83716;BME280;73698;51.138;6.950;2024-03-17T13:45:17;101473.94;;;14.04;54.24
83716;BME280;73698;51.138;6.950;2024-03-17T13:47:49;101464.50;;;13.97;53.29
83716;BME280;73698;51.138;6.950;2024-03-17T14:00:30;101461.03;;;13.95;53.83
83716;BME280;73698;51.138;6.950;2024-03-17T14:02:57;101463.44;;;13.99;53.71
83716;BME280;73698;51.138;6.950;2024-03-17T14:05:23;101457.13;;;13.99;53.62
83716;BME280;73698;51.138;6.950;2024-03-17T14:07:51;101458.44;;;13.93;54.38